createdAt,value
2018-12-30T00:02:17.644Z,38.60
2018-12-30T00:04:48.219Z,35.07
2018-12-30T00:07:19.966Z,42.57
2018-12-30T00:09:50.218Z,42.00
2018-12-30T00:12:20.795Z,39.07
2018-12-30T00:14:51.210Z,45.97
2018-12-30T00:17:21.777Z,41.20
2018-12-30T00:19:52.193Z,48.13
2018-12-30T00:22:22.577Z,44.07
2018-12-30T00:24:52.986Z,31.63
2018-12-30T00:27:23.451Z,38.13
2018-12-30T00:29:53.770Z,40.80
2018-12-30T00:32:24.541Z,32.10
2018-12-30T00:34:56.054Z,30.87
2018-12-30T00:37:26.452Z,40.87
2018-12-30T00:39:56.855Z,46.33
2018-12-30T00:42:27.203Z,49.67
2018-12-30T00:44:57.956Z,46.27
2018-12-30T00:47:28.310Z,39.97
2018-12-30T00:49:58.669Z,32.10
2018-12-30T00:52:29.065Z,49.13
2018-12-30T00:54:59.488Z,38.33
2018-12-30T00:57:30.143Z,40.43
2018-12-30T01:00:00.580Z,35.43
2018-12-30T01:02:31.063Z,37.23
2018-12-30T01:05:01.588Z,32.10
2018-12-30T01:07:32.115Z,39.17
2018-12-30T01:10:02.733Z,41.00
2018-12-30T01:12:33.117Z,32.53
2018-12-30T01:15:03.574Z,30.80
2018-12-30T01:17:33.944Z,32.83
2018-12-30T01:20:04.420Z,39.23
2018-12-30T01:22:34.842Z,28.47
2018-12-30T01:25:05.555Z,36.67
2018-12-30T01:27:36.145Z,33.47
2018-12-30T01:30:06.788Z,31.53
2018-12-30T01:32:37.155Z,24.50
2018-12-30T01:35:07.683Z,31.90
2018-12-30T01:37:38.121Z,34.43
2018-12-30T01:40:08.566Z,31.43
2018-12-30T01:42:39.199Z,28.10
2018-12-30T01:45:09.914Z,33.20
2018-12-30T01:47:40.383Z,34.20
2018-12-30T01:50:10.790Z,35.07
2018-12-30T01:52:41.083Z,28.33
2018-12-30T01:55:11.536Z,28.10
2018-12-30T01:57:42.236Z,33.03
2018-12-30T02:00:12.520Z,26.33
2018-12-30T02:02:42.845Z,24.40
2018-12-30T02:05:13.216Z,34.60
2018-12-30T02:07:43.568Z,34.50
2018-12-30T02:10:14.130Z,32.33
2018-12-30T02:12:44.452Z,27.33
2018-12-30T02:15:16.708Z,29.97
2018-12-30T02:17:47.193Z,34.13
2018-12-30T02:20:17.877Z,31.70
2018-12-30T02:22:48.340Z,25.93
2018-12-30T02:25:18.636Z,28.70
2018-12-30T02:27:48.998Z,21.83
2018-12-30T02:30:19.359Z,29.63
2018-12-30T02:32:49.810Z,38.37
2018-12-30T02:35:20.136Z,32.70
2018-12-30T02:37:50.466Z,26.97
2018-12-30T02:40:20.706Z,36.73
2018-12-30T02:42:51.452Z,29.50
2018-12-30T02:45:21.703Z,21.20
2018-12-30T02:47:52.090Z,25.90
2018-12-30T02:50:25.212Z,30.33
2018-12-30T02:52:55.606Z,26.27
2018-12-30T02:55:25.907Z,26.37
2018-12-30T02:57:56.234Z,31.23
2018-12-30T03:00:26.575Z,23.97
2018-12-30T03:02:57.153Z,29.43
2018-12-30T03:05:29.619Z,35.03
2018-12-30T03:07:59.947Z,21.27
2018-12-30T03:10:30.373Z,29.30
2018-12-30T03:13:00.707Z,19.33
2018-12-30T03:15:31.223Z,26.30
2018-12-30T03:18:01.544Z,23.43
2018-12-30T03:20:31.924Z,33.40
2018-12-30T03:23:02.237Z,19.30
2018-12-30T03:25:32.997Z,25.37
2018-12-30T03:28:03.462Z,25.27
2018-12-30T03:30:33.994Z,17.70
2018-12-30T03:33:04.421Z,29.30
2018-12-30T03:35:34.739Z,25.03
2018-12-30T03:38:05.044Z,28.60
2018-12-30T03:40:35.432Z,22.40
2018-12-30T03:43:05.760Z,24.43
2018-12-30T03:45:36.018Z,23.70
2018-12-30T03:48:06.229Z,22.43
2018-12-30T03:50:36.548Z,20.83
2018-12-30T03:53:06.854Z,22.97
2018-12-30T03:55:37.152Z,19.77
2018-12-30T03:58:07.509Z,14.63
2018-12-30T04:00:37.900Z,18.53
2018-12-30T04:03:08.136Z,26.63
2018-12-30T04:05:38.566Z,16.13
2018-12-30T04:08:08.823Z,23.53
2018-12-30T04:10:39.277Z,22.70
2018-12-30T04:13:09.555Z,17.93
2018-12-30T04:15:39.934Z,28.63
2018-12-30T04:18:10.317Z,24.43
2018-12-30T04:20:40.746Z,23.70
2018-12-30T04:23:11.007Z,20.60
2018-12-30T04:25:41.345Z,18.80
2018-12-30T04:28:11.571Z,25.53
2018-12-30T04:30:41.890Z,16.97
2018-12-30T04:33:12.140Z,20.87
2018-12-30T04:35:43.437Z,21.00
2018-12-30T04:38:13.691Z,20.07
2018-12-30T04:40:43.995Z,16.40
2018-12-30T04:43:14.426Z,21.70
2018-12-30T04:45:44.791Z,24.63
2018-12-30T04:48:15.114Z,22.10
2018-12-30T04:50:45.453Z,20.60
2018-12-30T04:53:15.696Z,20.33
2018-12-30T04:55:46.051Z,20.30
2018-12-30T04:58:16.312Z,21.60
2018-12-30T05:00:46.972Z,15.17
2018-12-30T05:03:17.277Z,19.43
2018-12-30T05:05:47.795Z,19.70
2018-12-30T05:08:18.132Z,16.43
2018-12-30T05:10:48.488Z,21.73
2018-12-30T05:13:18.878Z,17.77
2018-12-30T05:15:49.188Z,21.87
2018-12-30T05:18:19.431Z,14.83
2018-12-30T05:20:49.708Z,14.57
2018-12-30T05:23:20.150Z,24.13
2018-12-30T05:25:50.422Z,20.40
2018-12-30T05:28:20.728Z,28.37
2018-12-30T05:30:51.036Z,16.77
2018-12-30T05:33:21.326Z,21.63
2018-12-30T05:35:51.893Z,21.70
2018-12-30T05:38:22.246Z,22.20
2018-12-30T05:40:52.672Z,14.80
2018-12-30T05:43:22.999Z,17.27
2018-12-30T05:45:53.437Z,19.10
2018-12-30T05:48:23.690Z,16.00
2018-12-30T05:50:54.056Z,13.70
2018-12-30T05:53:24.364Z,15.13
2018-12-30T05:55:55.075Z,14.73
2018-12-30T05:58:25.400Z,17.17
2018-12-30T06:00:55.788Z,17.63
2018-12-30T06:03:26.111Z,20.87
2018-12-30T06:05:56.556Z,14.13
2018-12-30T06:08:26.884Z,18.77
2018-12-30T06:10:57.164Z,22.13
2018-12-30T06:13:27.472Z,13.23
2018-12-30T06:15:58.008Z,14.17
2018-12-30T06:18:28.342Z,14.27
2018-12-30T06:20:58.652Z,14.03
2018-12-30T06:23:28.936Z,17.73
2018-12-30T06:25:59.442Z,17.57
2018-12-30T06:28:29.796Z,14.70
2018-12-30T06:31:00.211Z,21.90
2018-12-30T06:33:30.574Z,26.03
2018-12-30T06:36:00.923Z,21.83
2018-12-30T06:38:31.284Z,23.93
2018-12-30T06:41:01.693Z,14.60
2018-12-30T06:43:31.936Z,15.13
2018-12-30T06:46:02.302Z,23.83
2018-12-30T06:48:32.590Z,21.23
2018-12-30T06:51:05.172Z,17.17
2018-12-30T06:53:35.534Z,19.03
2018-12-30T06:56:05.876Z,23.40
2018-12-30T06:58:36.191Z,21.40
2018-12-30T07:01:06.527Z,21.43
2018-12-30T07:03:36.828Z,20.60
2018-12-30T07:06:07.264Z,24.43
2018-12-30T07:08:37.528Z,20.07
2018-12-30T07:11:07.916Z,17.33
2018-12-30T07:13:38.161Z,17.50
2018-12-30T07:16:08.586Z,20.17
2018-12-30T07:18:38.886Z,16.40
2018-12-30T07:21:09.204Z,17.13
2018-12-30T07:23:39.456Z,16.73
2018-12-30T07:26:09.872Z,24.93
2018-12-30T07:28:40.224Z,14.20
2018-12-30T07:31:10.625Z,15.83
2018-12-30T07:33:40.925Z,20.17
2018-12-30T07:36:11.376Z,13.77
2018-12-30T07:38:44.539Z,16.20
2018-12-30T07:41:20.798Z,27.27
2018-12-30T07:43:51.245Z,22.87
2018-12-30T07:46:22.092Z,15.90
2018-12-30T07:48:52.618Z,17.20
2018-12-30T07:51:23.211Z,19.30
2018-12-30T07:53:53.649Z,15.97
2018-12-30T07:56:24.114Z,29.53
2018-12-30T07:58:54.417Z,17.77
2018-12-30T08:01:24.739Z,25.43
2018-12-30T08:03:55.037Z,21.10
2018-12-30T08:06:25.380Z,22.67
2018-12-30T08:08:55.699Z,21.93
2018-12-30T08:11:26.103Z,18.57
2018-12-30T08:13:56.365Z,25.37
2018-12-30T08:16:26.754Z,18.10
2018-12-30T08:18:57.207Z,20.17
2018-12-30T08:21:27.597Z,19.07
2018-12-30T08:23:57.940Z,24.83
2018-12-30T08:26:28.430Z,24.43
2018-12-30T08:28:58.805Z,26.77
2018-12-30T08:31:29.522Z,24.10
2018-12-30T08:33:59.881Z,23.00
2018-12-30T08:36:30.368Z,23.23
2018-12-30T08:39:00.730Z,18.57
2018-12-30T08:41:33.314Z,22.03
2018-12-30T08:44:03.792Z,20.87
2018-12-30T08:46:34.248Z,23.50
2018-12-30T08:49:04.636Z,19.77
2018-12-30T08:51:35.233Z,20.93
2018-12-30T08:54:05.694Z,19.93
2018-12-30T08:56:36.056Z,25.20
2018-12-30T08:59:06.444Z,22.63
2018-12-30T09:01:36.847Z,24.97
2018-12-30T09:04:07.431Z,20.53
2018-12-30T09:06:38.669Z,18.63
2018-12-30T09:09:09.739Z,17.07
2018-12-30T09:11:40.217Z,17.80
2018-12-30T09:14:10.618Z,20.50
2018-12-30T09:16:41.042Z,20.17
2018-12-30T09:19:11.399Z,20.83
2018-12-30T09:21:41.825Z,26.17
2018-12-30T09:24:14.448Z,21.80
2018-12-30T09:26:45.357Z,14.93
2018-12-30T09:29:15.779Z,17.70
2018-12-30T09:31:46.120Z,23.47
2018-12-30T09:34:16.494Z,15.67
2018-12-30T09:36:46.880Z,18.93
2018-12-30T09:39:17.268Z,18.00
2018-12-30T09:41:47.706Z,15.70
2018-12-30T09:44:18.244Z,23.57
2018-12-30T09:46:49.769Z,28.03
2018-12-30T09:49:21.937Z,14.57
2018-12-30T09:51:52.455Z,24.17
2018-12-30T09:54:22.809Z,33.33
2018-12-30T09:56:53.198Z,14.30
2018-12-30T09:59:26.609Z,23.50
2018-12-30T10:01:59.806Z,18.83
2018-12-30T10:04:30.830Z,19.60
2018-12-30T10:07:01.223Z,19.37
2018-12-30T10:09:31.628Z,21.63
2018-12-30T10:12:03.557Z,15.60
2018-12-30T10:14:34.648Z,26.83
2018-12-30T10:17:05.028Z,15.97
2018-12-30T10:19:35.335Z,22.23
2018-12-30T10:22:06.516Z,19.63
2018-12-30T10:24:37.034Z,20.47
2018-12-30T10:27:07.545Z,25.20
2018-12-30T10:29:37.958Z,23.07
2018-12-30T10:32:11.017Z,17.30
2018-12-30T10:34:44.080Z,19.77
2018-12-30T10:37:14.491Z,16.70
2018-12-30T10:39:44.932Z,19.43
2018-12-30T10:42:17.895Z,25.57
2018-12-30T10:44:48.354Z,22.40
2018-12-30T10:47:18.680Z,17.50
2018-12-30T10:49:49.800Z,20.97
2018-12-30T10:52:23.088Z,19.73
2018-12-30T10:54:53.534Z,20.63
2018-12-30T10:57:24.056Z,19.23
2018-12-30T10:59:54.423Z,20.27
2018-12-30T11:02:24.949Z,17.20
2018-12-30T11:04:55.576Z,21.03
2018-12-30T11:07:26.307Z,24.80
2018-12-30T11:09:56.649Z,17.10
2018-12-30T11:12:27.005Z,29.53
2018-12-30T11:14:59.400Z,19.93
2018-12-30T11:17:29.859Z,18.50
2018-12-30T11:20:00.235Z,18.03
2018-12-30T11:22:30.561Z,22.47
2018-12-30T11:25:08.118Z,18.60
2018-12-30T11:27:41.060Z,16.90
2018-12-30T11:30:13.397Z,23.57
2018-12-30T11:32:44.327Z,23.80
2018-12-30T11:35:14.965Z,21.33
2018-12-30T11:37:45.346Z,18.03
2018-12-30T11:40:17.309Z,19.50
2018-12-30T11:42:50.740Z,21.63
2018-12-30T11:45:21.331Z,22.60
2018-12-30T11:47:52.061Z,20.60
2018-12-30T11:50:22.577Z,18.77
2018-12-30T11:52:53.530Z,19.77
2018-12-30T11:55:23.894Z,20.17
2018-12-30T11:57:54.357Z,20.93
2018-12-30T12:00:24.725Z,12.57
2018-12-30T12:02:55.396Z,15.30
2018-12-30T12:05:25.820Z,23.83
2018-12-30T12:07:56.192Z,19.97
2018-12-30T12:10:26.582Z,23.47
2018-12-30T12:12:56.990Z,21.27
2018-12-30T12:15:30.211Z,16.17
2018-12-30T12:18:00.639Z,21.50
2018-12-30T12:20:31.089Z,23.90
2018-12-30T12:23:01.493Z,15.50
2018-12-30T12:25:31.999Z,17.37
2018-12-30T12:28:02.443Z,19.93
2018-12-30T12:30:32.907Z,18.30
2018-12-30T12:33:03.333Z,11.93
2018-12-30T12:35:33.751Z,97.77
2018-12-30T12:38:04.433Z,429.77
2018-12-30T12:40:35.555Z,71.00
2018-12-30T12:43:05.931Z,36.90
2018-12-30T12:45:36.285Z,100.20
2018-12-30T12:48:06.687Z,341.07
2018-12-30T12:50:36.945Z,229.57
2018-12-30T12:53:07.319Z,57.70
2018-12-30T12:55:37.695Z,38.33
2018-12-30T12:58:09.285Z,97.73
2018-12-30T13:00:39.559Z,41.43
2018-12-30T13:03:10.038Z,34.97
2018-12-30T13:05:40.335Z,28.57
2018-12-30T13:08:10.791Z,36.00
2018-12-30T13:10:42.723Z,27.53
2018-12-30T13:13:13.214Z,28.73
2018-12-30T13:15:45.998Z,26.87
2018-12-30T13:18:17.455Z,25.63
2018-12-30T13:20:47.772Z,24.57
2018-12-30T13:23:18.202Z,32.70
2018-12-30T13:25:48.629Z,33.27
2018-12-30T13:28:19.016Z,36.67
2018-12-30T13:30:49.340Z,24.93
2018-12-30T13:33:21.269Z,30.17
2018-12-30T13:35:51.584Z,32.43
2018-12-30T13:38:28.272Z,31.10
2018-12-30T13:40:54.030Z,35.30
2018-12-30T13:43:26.103Z,25.67
2018-12-30T13:45:57.338Z,31.37
2018-12-30T13:48:29.030Z,37.37
2018-12-30T13:50:59.549Z,27.57
2018-12-30T13:53:29.940Z,28.50
2018-12-30T13:56:02.412Z,22.00
2018-12-30T13:58:32.996Z,33.70
2018-12-30T14:01:03.444Z,25.27
2018-12-30T14:03:33.985Z,31.10
2018-12-30T14:06:04.395Z,32.10
2018-12-30T14:08:35.007Z,26.10
2018-12-30T14:11:06.123Z,24.23
2018-12-30T14:13:36.508Z,31.30
2018-12-30T14:16:08.105Z,28.17
2018-12-30T14:18:38.705Z,29.00
2018-12-30T14:21:09.875Z,28.67
2018-12-30T14:23:40.763Z,25.37
2018-12-30T14:26:12.201Z,22.13
2018-12-30T14:28:42.469Z,23.93
2018-12-30T14:31:12.939Z,25.47
2018-12-30T14:33:43.283Z,28.87
2018-12-30T14:36:13.702Z,31.30
2018-12-30T14:38:46.924Z,31.90
2018-12-30T14:41:17.485Z,32.87
2018-12-30T14:43:47.906Z,40.13
2018-12-30T14:46:18.282Z,39.87
2018-12-30T14:48:48.585Z,38.63
2018-12-30T14:51:18.860Z,54.90
2018-12-30T14:53:51.157Z,45.23
2018-12-30T14:56:21.599Z,43.03
2018-12-30T14:58:52.054Z,58.30
2018-12-30T15:01:24.696Z,69.57
2018-12-30T15:03:54.992Z,107.30
2018-12-30T15:06:25.275Z,72.80
2018-12-30T15:09:00.245Z,75.90
2018-12-30T15:11:30.753Z,68.33
2018-12-30T15:14:00.994Z,76.03
2018-12-30T15:16:31.319Z,84.10
2018-12-30T15:19:01.819Z,81.70
2018-12-30T15:21:32.159Z,85.90
2018-12-30T15:24:02.585Z,101.73
2018-12-30T15:26:34.619Z,106.03
2018-12-30T15:29:05.082Z,104.20
2018-12-30T15:31:35.551Z,96.33
2018-12-30T15:34:06.011Z,102.17
2018-12-30T15:36:36.401Z,96.83
2018-12-30T15:39:08.525Z,123.07
2018-12-30T15:41:38.883Z,118.30
2018-12-30T15:44:09.262Z,140.53
2018-12-30T15:46:42.444Z,130.60
2018-12-30T15:49:12.864Z,125.63
2018-12-30T15:51:43.314Z,122.27
2018-12-30T15:54:13.870Z,121.43
2018-12-30T15:56:45.742Z,81.03
2018-12-30T15:59:16.840Z,78.07
2018-12-30T16:01:47.608Z,83.10
2018-12-30T16:04:18.069Z,79.70
2018-12-30T16:06:55.017Z,67.23
2018-12-30T16:09:27.934Z,60.13
2018-12-30T16:11:59.034Z,68.90
2018-12-30T16:14:29.850Z,54.23
2018-12-30T16:17:03.852Z,55.33
2018-12-30T16:19:34.517Z,59.87
2018-12-30T16:22:05.165Z,50.23
2018-12-30T16:24:35.815Z,49.10
2018-12-30T16:27:06.542Z,51.73
2018-12-30T16:29:37.012Z,43.93
2018-12-30T16:32:07.788Z,41.67
2018-12-30T16:34:38.175Z,58.43
2018-12-30T16:37:08.646Z,54.17
2018-12-30T16:39:39.357Z,78.23
2018-12-30T16:42:09.856Z,108.53
2018-12-30T16:44:40.810Z,93.57
2018-12-30T16:47:11.290Z,89.83
2018-12-30T16:49:41.641Z,57.07
2018-12-30T16:52:13.698Z,54.90
2018-12-30T16:54:44.276Z,55.43
2018-12-30T16:57:14.694Z,60.87
2018-12-30T16:59:45.084Z,57.73
2018-12-30T17:02:15.475Z,62.97
2018-12-30T17:04:45.940Z,56.33
2018-12-30T17:07:17.725Z,72.07
2018-12-30T17:09:47.953Z,66.10
2018-12-30T17:12:18.315Z,57.77
2018-12-30T17:14:48.676Z,50.77
2018-12-30T17:17:19.092Z,63.55
2018-12-30T17:19:49.390Z,65.67
2018-12-30T17:22:19.795Z,54.23
2018-12-30T17:24:50.634Z,51.50
2018-12-30T17:27:21.079Z,67.07
2018-12-30T17:29:51.432Z,48.13
2018-12-30T17:32:21.828Z,63.30
2018-12-30T17:34:52.080Z,53.23
2018-12-30T17:37:22.376Z,52.20
2018-12-30T17:39:52.723Z,42.40
2018-12-30T17:42:23.113Z,48.30
2018-12-30T17:44:53.457Z,61.83
2018-12-30T17:47:23.889Z,57.47
2018-12-30T17:49:54.271Z,72.47
2018-12-30T17:52:24.717Z,73.43
2018-12-30T17:54:55.068Z,38.87
2018-12-30T17:57:26.918Z,61.27
2018-12-30T17:59:57.231Z,45.57
2018-12-30T18:02:27.758Z,52.40
2018-12-30T18:04:58.164Z,58.60
2018-12-30T18:07:28.836Z,38.90
2018-12-30T18:09:59.227Z,46.67
2018-12-30T18:12:29.630Z,53.60
2018-12-30T18:15:00.000Z,40.93
2018-12-30T18:17:30.390Z,45.43
2018-12-30T18:20:00.740Z,48.97
2018-12-30T18:22:31.310Z,44.53
2018-12-30T18:25:01.687Z,44.53
2018-12-30T18:27:32.049Z,54.60
2018-12-30T18:30:02.405Z,48.63
2018-12-30T18:32:32.731Z,51.30
2018-12-30T18:35:03.070Z,44.70
2018-12-30T18:37:33.539Z,60.43
2018-12-30T18:40:05.129Z,40.10
2018-12-30T18:42:35.439Z,39.47
2018-12-30T18:45:06.499Z,46.73
2018-12-30T18:47:36.891Z,51.30
2018-12-30T18:50:07.973Z,47.37
2018-12-30T18:52:38.399Z,44.83
2018-12-30T18:55:08.744Z,46.50
2018-12-30T18:57:39.115Z,52.87
2018-12-30T19:00:10.771Z,47.53
2018-12-30T19:02:42.933Z,58.30
2018-12-30T19:05:13.217Z,46.83
2018-12-30T19:07:45.244Z,50.57
2018-12-30T19:10:15.832Z,62.70
2018-12-30T19:12:47.920Z,65.60
2018-12-30T19:15:23.947Z,59.00
2018-12-30T19:17:55.593Z,57.20
2018-12-30T19:20:26.152Z,62.00
2018-12-30T19:22:56.842Z,61.03
2018-12-30T19:25:27.219Z,70.53
2018-12-30T19:27:57.679Z,56.30
2018-12-30T19:30:28.123Z,54.73
2018-12-30T19:32:58.486Z,57.07
2018-12-30T19:35:28.928Z,63.70
2018-12-30T19:38:01.009Z,60.30
2018-12-30T19:40:31.496Z,90.17
2018-12-30T19:43:02.197Z,72.03
2018-12-30T19:45:32.653Z,78.80
2018-12-30T19:48:03.141Z,84.17
2018-12-30T19:50:33.820Z,65.10
2018-12-30T19:53:04.480Z,75.90
2018-12-30T19:55:35.190Z,56.83
2018-12-30T19:58:06.244Z,71.23
2018-12-30T20:00:37.745Z,68.03
2018-12-30T20:03:08.428Z,73.33
2018-12-30T20:05:39.097Z,65.70
2018-12-30T20:08:10.580Z,58.70
2018-12-30T20:10:44.999Z,55.07
2018-12-30T20:13:15.650Z,45.57
2018-12-30T20:15:47.845Z,47.17
2018-12-30T20:18:20.116Z,47.17
2018-12-30T20:20:50.866Z,62.40
2018-12-30T20:23:21.616Z,47.50
2018-12-30T20:25:53.437Z,51.80
2018-12-30T20:28:23.906Z,55.27
2018-12-30T20:30:54.967Z,46.13
2018-12-30T20:33:25.472Z,46.57
2018-12-30T20:35:55.953Z,40.33
2018-12-30T20:38:26.598Z,42.50
2018-12-30T20:40:57.185Z,40.33
2018-12-30T20:43:27.767Z,46.63
2018-12-30T20:45:58.451Z,38.43
2018-12-30T20:48:29.019Z,46.37
2018-12-30T20:51:02.299Z,47.47
2018-12-30T20:53:34.374Z,53.30
2018-12-30T20:56:04.772Z,63.20
2018-12-30T20:58:35.107Z,57.53
2018-12-30T21:01:05.412Z,42.83
2018-12-30T21:03:35.772Z,41.67
2018-12-30T21:06:06.180Z,31.47
2018-12-30T21:08:36.718Z,32.20
2018-12-30T21:11:08.515Z,40.00
2018-12-30T21:13:39.060Z,34.93
2018-12-30T21:16:09.450Z,32.00
2018-12-30T21:18:39.788Z,45.47
2018-12-30T21:21:10.230Z,42.03
2018-12-30T21:23:40.658Z,53.67
2018-12-30T21:26:10.943Z,38.77
2018-12-30T21:28:41.234Z,55.00
2018-12-30T21:31:11.526Z,51.60
2018-12-30T21:33:43.498Z,48.43
2018-12-30T21:36:13.844Z,87.03
2018-12-30T21:38:44.105Z,51.60
2018-12-30T21:41:14.373Z,40.30
2018-12-30T21:43:47.561Z,50.67
2018-12-30T21:46:17.864Z,39.97
2018-12-30T21:48:48.369Z,47.33
2018-12-30T21:51:18.629Z,43.53
2018-12-30T21:53:48.959Z,43.80
2018-12-30T21:56:20.225Z,51.57
2018-12-30T21:58:50.613Z,41.90
2018-12-30T22:01:21.043Z,52.07
2018-12-30T22:03:51.489Z,67.33
2018-12-30T22:06:21.875Z,59.37
2018-12-30T22:08:52.287Z,64.77
2018-12-30T22:11:22.815Z,71.13
2018-12-30T22:13:53.312Z,47.43
2018-12-30T22:16:23.879Z,58.33
2018-12-30T22:18:56.146Z,49.07
2018-12-30T22:21:27.106Z,50.43
2018-12-30T22:23:57.563Z,53.30
2018-12-30T22:26:27.952Z,43.00
2018-12-30T22:28:58.280Z,44.17
2018-12-30T22:31:28.680Z,44.07
2018-12-30T22:34:00.950Z,53.03
2018-12-30T22:36:31.444Z,44.20
2018-12-30T22:39:07.083Z,47.67
2018-12-30T22:41:37.463Z,70.63
2018-12-30T22:44:09.439Z,47.70
2018-12-30T22:46:39.783Z,45.40
2018-12-30T22:49:10.284Z,38.77
2018-12-30T22:51:40.657Z,37.10
2018-12-30T22:54:14.128Z,42.77
2018-12-30T22:56:44.509Z,39.27
2018-12-30T22:59:14.956Z,47.33
2018-12-30T23:01:46.620Z,39.87
2018-12-30T23:04:21.137Z,38.40
2018-12-30T23:06:51.502Z,42.63
2018-12-30T23:09:21.981Z,36.53
2018-12-30T23:11:52.384Z,37.27
2018-12-30T23:14:22.675Z,31.03
2018-12-30T23:16:54.102Z,24.57
2018-12-30T23:19:24.457Z,28.03
2018-12-30T23:21:54.873Z,34.77
2018-12-30T23:24:25.363Z,30.03
2018-12-30T23:26:55.830Z,23.00
2018-12-30T23:29:26.240Z,34.43
2018-12-30T23:31:56.739Z,32.63
2018-12-30T23:34:28.323Z,27.27
2018-12-30T23:36:58.701Z,28.70
2018-12-30T23:39:29.819Z,27.70
2018-12-30T23:42:00.293Z,28.33
2018-12-30T23:44:30.667Z,25.20
2018-12-30T23:47:01.068Z,25.97
2018-12-30T23:49:31.372Z,35.93
2018-12-30T23:52:03.832Z,20.60
2018-12-30T23:54:34.183Z,30.03
2018-12-30T23:57:04.588Z,22.80
2018-12-30T23:59:35.060Z,31.00
